Potomac — WBF7534 — position and weather

sailwx.info

Track history (hours):
 
Tides and Currents Weather Stations Pressure Air Temp Water Temp Dewpoint Dewpoint Depression Visibility Wind Speed Wind Dir Waves Ship Positions

Potomac

Owner: POTOMAC ASSOCIATION, OAKLAND, CA. More information available from US FCC via Universal Licensing System and Coast Guard Vessel Documentation Center.

Last reported at 2016-Jul-23 19:33 UTC. Time now 2016-Jul-30 14:58 UTC.
Position N 37°48' W 122°17'.

Length 51 m; draft 3.1 m.

MMSI: 367166810.

Date/timePositionNaut miles runAvg speedWind from/ knotsBaromVisibWave heightAir tempDewpointWater temp
2016-Jul-23 19:33N 37°48' W 122°17'8 7.6
2016-Jul-23 18:33N 37°52' W 122°25'8 7.7
2016-Jul-23 17:33N 37°48' W 122°17'0 0.1
2016-Jul-23 16:33N 37°48' W 122°17'0 0.0
2016-Jul-23 04:32N 37°48' W 122°17'6 6.1
2016-Jul-23 03:33N 37°49' W 122°24'1 1.2
2016-Jul-23 02:33N 37°48' W 122°23'5 4.6
2016-Jul-23 01:31N 37°48' W 122°17'  
2016-Jul-20 21:29N 37°48' W 122°17'4 4.1
2016-Jul-20 20:33N 37°48' W 122°22'5 4.5
2016-Jul-20 19:33N 37°49' W 122°27'6 5.7
2016-Jul-20 18:33N 37°48' W 122°20'  
2016-Jul-17 22:26N 37°48' W 122°17'6 5.2
2016-Jul-17 21:21N 37°51' W 122°23'5 5.9
2016-Jul-17 20:33N 37°51' W 122°29'8 8.2
2016-Jul-17 19:33N 37°48' W 122°19'2 2.0
2016-Jul-17 18:33N 37°48' W 122°17'4 0.1
2016-Jul-16 04:31N 37°48' W 122°22'1 1.2
2016-Jul-16 03:30N 37°48' W 122°24'1 0.6
2016-Jul-16 02:33N 37°49' W 122°24'1 1.4
2016-Jul-16 01:33N 37°48' W 122°23'1 1.0
2016-Jul-16 00:33N 37°47' W 122°22'4 4.1
2016-Jul-15 23:33N 37°48' W 122°17'0 0.0
2016-Jul-15 22:33N 37°48' W 122°17'0 0.0
2016-Jul-14 19:33N 37°48' W 122°17'9 8.7
2016-Jul-14 18:33N 37°51' W 122°27'8 8.5
2016-Jul-14 17:33N 37°48' W 122°17'0 0.4
2016-Jul-14 16:33N 37°48' W 122°17'0 0.0
2016-Jul-14 01:07N 37°48' W 122°17'3 5.0
2016-Jul-14 00:32N 37°48' W 122°20'1 0.9
2016-Jul-13 23:33N 37°48' W 122°19'  
Track history (hours):
 
Tides and Currents Weather Stations Pressure Air Temp Water Temp Dewpoint Dewpoint Depression Visibility Wind Speed Wind Dir Waves Ship Positions

Potomac

Owner: POTOMAC ASSOCIATION, OAKLAND, CA. More information available from US FCC via Universal Licensing System and Coast Guard Vessel Documentation Center.

Last reported at 2016-Jul-23 19:33 UTC. Time now 2016-Jul-30 14:58 UTC.
Position N 37°48' W 122°17'.

Length 51 m; draft 3.1 m.

MMSI: 367166810.

Date/timePositionNaut miles runAvg speedWind from/ knotsBaromVisibWave heightAir tempDewpointWater temp
2016-Jul-23 19:33N 37°48' W 122°17'8 7.6
2016-Jul-23 18:33N 37°52' W 122°25'8 7.7
2016-Jul-23 17:33N 37°48' W 122°17'0 0.1
2016-Jul-23 16:33N 37°48' W 122°17'0 0.0
2016-Jul-23 04:32N 37°48' W 122°17'6 6.1
2016-Jul-23 03:33N 37°49' W 122°24'1 1.2
2016-Jul-23 02:33N 37°48' W 122°23'5 4.6
2016-Jul-23 01:31N 37°48' W 122°17'  
2016-Jul-20 21:29N 37°48' W 122°17'4 4.1
2016-Jul-20 20:33N 37°48' W 122°22'5 4.5
2016-Jul-20 19:33N 37°49' W 122°27'6 5.7
2016-Jul-20 18:33N 37°48' W 122°20'  
2016-Jul-17 22:26N 37°48' W 122°17'6 5.2
2016-Jul-17 21:21N 37°51' W 122°23'5 5.9
2016-Jul-17 20:33N 37°51' W 122°29'8 8.2
2016-Jul-17 19:33N 37°48' W 122°19'2 2.0
2016-Jul-17 18:33N 37°48' W 122°17'4 0.1
2016-Jul-16 04:31N 37°48' W 122°22'1 1.2
2016-Jul-16 03:30N 37°48' W 122°24'1 0.6
2016-Jul-16 02:33N 37°49' W 122°24'1 1.4
2016-Jul-16 01:33N 37°48' W 122°23'1 1.0
2016-Jul-16 00:33N 37°47' W 122°22'4 4.1
2016-Jul-15 23:33N 37°48' W 122°17'0 0.0
2016-Jul-15 22:33N 37°48' W 122°17'0 0.0
2016-Jul-14 19:33N 37°48' W 122°17'9 8.7
2016-Jul-14 18:33N 37°51' W 122°27'8 8.5
2016-Jul-14 17:33N 37°48' W 122°17'0 0.4
2016-Jul-14 16:33N 37°48' W 122°17'0 0.0
2016-Jul-14 01:07N 37°48' W 122°17'3 5.0
2016-Jul-14 00:32N 37°48' W 122°20'1 0.9
2016-Jul-13 23:33N 37°48' W 122°19'  

Dump ship's entire track history